sensor_id;sensor_type;location;lat;lon;timestamp;P1;durP1;ratioP1;P2;durP2;ratioP2
37983;SDS011;64625;50.882;4.376;2023-02-22T00:00:24;63.05;;;24.23;;
37983;SDS011;64625;50.882;4.376;2023-02-22T00:05:49;62.00;;;23.85;;
37983;SDS011;64625;50.882;4.376;2023-02-22T00:08:22;55.97;;;24.05;;
37983;SDS011;64625;50.882;4.376;2023-02-22T00:10:50;52.95;;;23.50;;
37983;SDS011;64625;50.882;4.376;2023-02-22T00:13:16;57.53;;;22.77;;
37983;SDS011;64625;50.882;4.376;2023-02-22T00:15:47;59.33;;;25.35;;
37983;SDS011;64625;50.882;4.376;2023-02-22T00:18:14;77.65;;;25.20;;
37983;SDS011;64625;50.882;4.376;2023-02-22T00:20:43;61.63;;;24.65;;
37983;SDS011;64625;50.882;4.376;2023-02-22T00:23:13;64.03;;;23.88;;
37983;SDS011;64625;50.882;4.376;2023-02-22T00:25:43;71.55;;;26.23;;
37983;SDS011;64625;50.882;4.376;2023-02-22T00:28:10;59.03;;;25.77;;
37983;SDS011;64625;50.882;4.376;2023-02-22T00:30:36;73.93;;;27.02;;
37983;SDS011;64625;50.882;4.376;2023-02-22T00:33:03;69.28;;;26.38;;
37983;SDS011;64625;50.882;4.376;2023-02-22T00:35:30;55.13;;;22.95;;
37983;SDS011;64625;50.882;4.376;2023-02-22T00:37:59;62.13;;;24.98;;
37983;SDS011;64625;50.882;4.376;2023-02-22T00:40:27;60.85;;;25.30;;
37983;SDS011;64625;50.882;4.376;2023-02-22T00:42:55;57.83;;;23.98;;
37983;SDS011;64625;50.882;4.376;2023-02-22T00:45:22;88.00;;;24.88;;
37983;SDS011;64625;50.882;4.376;2023-02-22T00:47:50;67.97;;;24.40;;
37983;SDS011;64625;50.882;4.376;2023-02-22T00:50:16;61.35;;;25.52;;
37983;SDS011;64625;50.882;4.376;2023-02-22T00:52:43;69.20;;;25.38;;
37983;SDS011;64625;50.882;4.376;2023-02-22T00:55:15;70.15;;;25.67;;
37983;SDS011;64625;50.882;4.376;2023-02-22T00:57:42;54.00;;;24.90;;
37983;SDS011;64625;50.882;4.376;2023-02-22T01:00:13;119.80;;;25.83;;
37983;SDS011;64625;50.882;4.376;2023-02-22T01:02:51;59.65;;;24.08;;
37983;SDS011;64625;50.882;4.376;2023-02-22T01:05:18;71.85;;;23.13;;
37983;SDS011;64625;50.882;4.376;2023-02-22T01:07:45;59.38;;;24.45;;
37983;SDS011;64625;50.882;4.376;2023-02-22T01:10:12;59.95;;;23.80;;
37983;SDS011;64625;50.882;4.376;2023-02-22T01:12:38;76.93;;;23.70;;
37983;SDS011;64625;50.882;4.376;2023-02-22T01:15:06;63.95;;;26.77;;
37983;SDS011;64625;50.882;4.376;2023-02-22T01:17:34;50.75;;;24.65;;
37983;SDS011;64625;50.882;4.376;2023-02-22T01:20:02;59.63;;;23.65;;
37983;SDS011;64625;50.882;4.376;2023-02-22T01:22:42;61.88;;;24.52;;
37983;SDS011;64625;50.882;4.376;2023-02-22T01:25:10;53.42;;;23.20;;
37983;SDS011;64625;50.882;4.376;2023-02-22T01:27:39;53.55;;;22.88;;
37983;SDS011;64625;50.882;4.376;2023-02-22T01:30:06;74.32;;;26.60;;
37983;SDS011;64625;50.882;4.376;2023-02-22T01:32:35;46.42;;;24.55;;
37983;SDS011;64625;50.882;4.376;2023-02-22T01:35:04;63.27;;;26.27;;
37983;SDS011;64625;50.882;4.376;2023-02-22T01:37:32;90.57;;;25.15;;
37983;SDS011;64625;50.882;4.376;2023-02-22T01:39:59;72.45;;;24.52;;
37983;SDS011;64625;50.882;4.376;2023-02-22T01:42:25;53.40;;;25.00;;
37983;SDS011;64625;50.882;4.376;2023-02-22T01:50:34;59.45;;;23.33;;
37983;SDS011;64625;50.882;4.376;2023-02-22T01:53:13;43.63;;;23.10;;
37983;SDS011;64625;50.882;4.376;2023-02-22T01:55:42;68.85;;;25.13;;
37983;SDS011;64625;50.882;4.376;2023-02-22T01:58:09;50.50;;;22.10;;
37983;SDS011;64625;50.882;4.376;2023-02-22T02:00:36;49.78;;;21.50;;
37983;SDS011;64625;50.882;4.376;2023-02-22T02:03:06;58.35;;;23.15;;
37983;SDS011;64625;50.882;4.376;2023-02-22T02:05:36;52.60;;;21.13;;
37983;SDS011;64625;50.882;4.376;2023-02-22T02:10:52;48.00;;;19.70;;
37983;SDS011;64625;50.882;4.376;2023-02-22T02:13:19;59.85;;;20.88;;
37983;SDS011;64625;50.882;4.376;2023-02-22T02:15:45;59.63;;;21.05;;
37983;SDS011;64625;50.882;4.376;2023-02-22T02:18:14;52.17;;;20.27;;
37983;SDS011;64625;50.882;4.376;2023-02-22T02:20:46;42.88;;;21.60;;
37983;SDS011;64625;50.882;4.376;2023-02-22T02:34:57;37.60;;;19.55;;
37983;SDS011;64625;50.882;4.376;2023-02-22T02:37:45;42.70;;;19.42;;
37983;SDS011;64625;50.882;4.376;2023-02-22T02:40:36;35.05;;;18.80;;
37983;SDS011;64625;50.882;4.376;2023-02-22T02:48:41;32.78;;;18.33;;
37983;SDS011;64625;50.882;4.376;2023-02-22T02:51:10;35.45;;;19.15;;
37983;SDS011;64625;50.882;4.376;2023-02-22T02:53:39;45.90;;;20.67;;
37983;SDS011;64625;50.882;4.376;2023-02-22T02:56:09;41.38;;;19.92;;
37983;SDS011;64625;50.882;4.376;2023-02-22T02:58:45;32.67;;;17.80;;
37983;SDS011;64625;50.882;4.376;2023-02-22T03:01:14;35.38;;;18.17;;
37983;SDS011;64625;50.882;4.376;2023-02-22T03:04:03;37.80;;;18.90;;
37983;SDS011;64625;50.882;4.376;2023-02-22T03:06:49;45.17;;;18.73;;
37983;SDS011;64625;50.882;4.376;2023-02-22T03:14:54;34.05;;;18.30;;
37983;SDS011;64625;50.882;4.376;2023-02-22T03:17:27;34.05;;;17.65;;
37983;SDS011;64625;50.882;4.376;2023-02-22T03:20:19;30.02;;;17.85;;
37983;SDS011;64625;50.882;4.376;2023-02-22T03:23:01;28.45;;;16.80;;
37983;SDS011;64625;50.882;4.376;2023-02-22T03:25:36;35.90;;;18.45;;
37983;SDS011;64625;50.882;4.376;2023-02-22T03:28:11;36.35;;;16.80;;
37983;SDS011;64625;50.882;4.376;2023-02-22T03:30:43;31.38;;;19.13;;
37983;SDS011;64625;50.882;4.376;2023-02-22T03:33:16;31.88;;;17.13;;
37983;SDS011;64625;50.882;4.376;2023-02-22T03:36:20;27.17;;;16.20;;
37983;SDS011;64625;50.882;4.376;2023-02-22T03:38:50;31.38;;;16.92;;
37983;SDS011;64625;50.882;4.376;2023-02-22T03:41:21;33.72;;;17.77;;
37983;SDS011;64625;50.882;4.376;2023-02-22T03:43:51;35.60;;;18.48;;
37983;SDS011;64625;50.882;4.376;2023-02-22T03:46:39;33.15;;;17.65;;
37983;SDS011;64625;50.882;4.376;2023-02-22T03:51:44;31.88;;;17.05;;
37983;SDS011;64625;50.882;4.376;2023-02-22T03:54:11;38.20;;;19.85;;
37983;SDS011;64625;50.882;4.376;2023-02-22T03:57:41;32.60;;;18.33;;
37983;SDS011;64625;50.882;4.376;2023-02-22T03:59:56;30.80;;;16.30;;
37983;SDS011;64625;50.882;4.376;2023-02-22T04:02:22;32.20;;;17.30;;
37983;SDS011;64625;50.882;4.376;2023-02-22T04:04:48;31.40;;;17.23;;
37983;SDS011;64625;50.882;4.376;2023-02-22T04:07:14;32.60;;;16.23;;
37983;SDS011;64625;50.882;4.376;2023-02-22T04:09:44;35.50;;;18.60;;
37983;SDS011;64625;50.882;4.376;2023-02-22T04:12:10;36.00;;;18.33;;
37983;SDS011;64625;50.882;4.376;2023-02-22T04:14:36;33.25;;;17.33;;
37983;SDS011;64625;50.882;4.376;2023-02-22T04:17:02;31.50;;;17.10;;
37983;SDS011;64625;50.882;4.376;2023-02-22T04:19:28;31.55;;;17.67;;
37983;SDS011;64625;50.882;4.376;2023-02-22T04:21:53;30.23;;;18.15;;
37983;SDS011;64625;50.882;4.376;2023-02-22T04:24:19;33.47;;;19.08;;
37983;SDS011;64625;50.882;4.376;2023-02-22T04:26:45;35.67;;;17.27;;
37983;SDS011;64625;50.882;4.376;2023-02-22T04:29:11;30.90;;;18.45;;
37983;SDS011;64625;50.882;4.376;2023-02-22T04:31:37;40.60;;;18.23;;
37983;SDS011;64625;50.882;4.376;2023-02-22T04:34:03;27.83;;;15.98;;
37983;SDS011;64625;50.882;4.376;2023-02-22T04:36:30;31.48;;;17.10;;
37983;SDS011;64625;50.882;4.376;2023-02-22T04:38:57;28.40;;;15.13;;
37983;SDS011;64625;50.882;4.376;2023-02-22T04:41:23;28.38;;;16.88;;
37983;SDS011;64625;50.882;4.376;2023-02-22T04:43:49;28.58;;;15.73;;
37983;SDS011;64625;50.882;4.376;2023-02-22T04:46:18;30.98;;;18.92;;
37983;SDS011;64625;50.882;4.376;2023-02-22T04:48:44;31.63;;;16.73;;
37983;SDS011;64625;50.882;4.376;2023-02-22T04:51:10;29.42;;;15.98;;
37983;SDS011;64625;50.882;4.376;2023-02-22T04:53:36;30.00;;;15.27;;
37983;SDS011;64625;50.882;4.376;2023-02-22T04:56:01;27.15;;;15.77;;
37983;SDS011;64625;50.882;4.376;2023-02-22T04:58:27;31.13;;;14.73;;
37983;SDS011;64625;50.882;4.376;2023-02-22T05:00:53;26.33;;;15.57;;
37983;SDS011;64625;50.882;4.376;2023-02-22T05:03:19;26.10;;;15.90;;
37983;SDS011;64625;50.882;4.376;2023-02-22T05:05:45;27.95;;;17.02;;
37983;SDS011;64625;50.882;4.376;2023-02-22T05:08:12;29.55;;;15.90;;
37983;SDS011;64625;50.882;4.376;2023-02-22T05:10:43;22.27;;;12.60;;
37983;SDS011;64625;50.882;4.376;2023-02-22T05:13:08;27.42;;;15.70;;
37983;SDS011;64625;50.882;4.376;2023-02-22T05:15:34;24.35;;;13.50;;
37983;SDS011;64625;50.882;4.376;2023-02-22T05:18:00;26.17;;;14.15;;
37983;SDS011;64625;50.882;4.376;2023-02-22T05:20:27;22.10;;;13.98;;
37983;SDS011;64625;50.882;4.376;2023-02-22T05:22:58;25.58;;;15.68;;
37983;SDS011;64625;50.882;4.376;2023-02-22T05:25:25;22.95;;;12.57;;
37983;SDS011;64625;50.882;4.376;2023-02-22T05:27:56;28.25;;;13.95;;
37983;SDS011;64625;50.882;4.376;2023-02-22T05:30:25;28.90;;;13.68;;
37983;SDS011;64625;50.882;4.376;2023-02-22T05:32:54;23.40;;;14.93;;
37983;SDS011;64625;50.882;4.376;2023-02-22T05:35:20;27.55;;;13.75;;
37983;SDS011;64625;50.882;4.376;2023-02-22T05:37:47;22.35;;;14.10;;
37983;SDS011;64625;50.882;4.376;2023-02-22T05:40:16;20.33;;;12.50;;
37983;SDS011;64625;50.882;4.376;2023-02-22T05:42:47;23.30;;;13.70;;
37983;SDS011;64625;50.882;4.376;2023-02-22T05:45:14;22.58;;;13.93;;
37983;SDS011;64625;50.882;4.376;2023-02-22T05:47:41;18.55;;;11.25;;
37983;SDS011;64625;50.882;4.376;2023-02-22T05:50:07;22.77;;;13.75;;
37983;SDS011;64625;50.882;4.376;2023-02-22T05:52:34;21.38;;;12.13;;
37983;SDS011;64625;50.882;4.376;2023-02-22T05:55:00;18.90;;;12.73;;
37983;SDS011;64625;50.882;4.376;2023-02-22T05:57:25;19.02;;;11.95;;
37983;SDS011;64625;50.882;4.376;2023-02-22T05:59:51;20.08;;;11.18;;
37983;SDS011;64625;50.882;4.376;2023-02-22T06:02:17;26.23;;;13.48;;
37983;SDS011;64625;50.882;4.376;2023-02-22T06:04:44;21.88;;;12.55;;
37983;SDS011;64625;50.882;4.376;2023-02-22T06:07:10;20.20;;;12.60;;
37983;SDS011;64625;50.882;4.376;2023-02-22T06:09:36;21.17;;;12.32;;
37983;SDS011;64625;50.882;4.376;2023-02-22T06:12:02;22.15;;;11.15;;
37983;SDS011;64625;50.882;4.376;2023-02-22T06:14:28;26.52;;;14.00;;
37983;SDS011;64625;50.882;4.376;2023-02-22T06:16:54;23.77;;;12.88;;
37983;SDS011;64625;50.882;4.376;2023-02-22T06:19:21;24.58;;;12.20;;
37983;SDS011;64625;50.882;4.376;2023-02-22T06:21:51;24.35;;;12.73;;
37983;SDS011;64625;50.882;4.376;2023-02-22T06:24:18;29.07;;;12.87;;
37983;SDS011;64625;50.882;4.376;2023-02-22T06:26:44;21.10;;;11.65;;
37983;SDS011;64625;50.882;4.376;2023-02-22T06:29:10;21.38;;;11.88;;
37983;SDS011;64625;50.882;4.376;2023-02-22T06:31:36;22.50;;;11.50;;
37983;SDS011;64625;50.882;4.376;2023-02-22T06:34:02;29.77;;;12.10;;
37983;SDS011;64625;50.882;4.376;2023-02-22T06:36:28;19.33;;;10.57;;
37983;SDS011;64625;50.882;4.376;2023-02-22T06:38:56;20.98;;;11.38;;
37983;SDS011;64625;50.882;4.376;2023-02-22T06:41:22;21.15;;;10.85;;
37983;SDS011;64625;50.882;4.376;2023-02-22T06:43:48;32.58;;;12.70;;
37983;SDS011;64625;50.882;4.376;2023-02-22T06:46:14;25.27;;;11.32;;
37983;SDS011;64625;50.882;4.376;2023-02-22T06:48:40;19.73;;;11.63;;
37983;SDS011;64625;50.882;4.376;2023-02-22T06:51:07;23.95;;;11.02;;
37983;SDS011;64625;50.882;4.376;2023-02-22T06:53:33;29.77;;;11.20;;
37983;SDS011;64625;50.882;4.376;2023-02-22T06:56:00;23.75;;;12.07;;
37983;SDS011;64625;50.882;4.376;2023-02-22T06:58:26;25.35;;;12.13;;
37983;SDS011;64625;50.882;4.376;2023-02-22T07:00:53;15.57;;;10.48;;
37983;SDS011;64625;50.882;4.376;2023-02-22T07:03:19;24.73;;;11.43;;
37983;SDS011;64625;50.882;4.376;2023-02-22T07:05:45;27.23;;;12.52;;
37983;SDS011;64625;50.882;4.376;2023-02-22T07:08:11;22.42;;;10.90;;
37983;SDS011;64625;50.882;4.376;2023-02-22T07:10:38;31.05;;;11.82;;
37983;SDS011;64625;50.882;4.376;2023-02-22T07:13:06;35.55;;;13.02;;
37983;SDS011;64625;50.882;4.376;2023-02-22T07:15:33;28.80;;;11.50;;
37983;SDS011;64625;50.882;4.376;2023-02-22T07:18:00;24.67;;;12.77;;
37983;SDS011;64625;50.882;4.376;2023-02-22T07:20:27;38.22;;;15.18;;
37983;SDS011;64625;50.882;4.376;2023-02-22T07:22:55;35.67;;;13.93;;
37983;SDS011;64625;50.882;4.376;2023-02-22T07:25:21;35.33;;;12.95;;
37983;SDS011;64625;50.882;4.376;2023-02-22T07:27:48;32.25;;;13.50;;
37983;SDS011;64625;50.882;4.376;2023-02-22T07:32:45;19.35;;;11.35;;
37983;SDS011;64625;50.882;4.376;2023-02-22T07:37:43;48.83;;;12.40;;
37983;SDS011;64625;50.882;4.376;2023-02-22T07:40:10;26.70;;;13.60;;
37983;SDS011;64625;50.882;4.376;2023-02-22T07:45:40;29.23;;;12.13;;
37983;SDS011;64625;50.882;4.376;2023-02-22T07:48:06;23.90;;;12.32;;
37983;SDS011;64625;50.882;4.376;2023-02-22T07:50:33;43.03;;;12.02;;
37983;SDS011;64625;50.882;4.376;2023-02-22T07:53:01;38.75;;;12.90;;
37983;SDS011;64625;50.882;4.376;2023-02-22T07:55:30;55.38;;;18.13;;
37983;SDS011;64625;50.882;4.376;2023-02-22T07:57:57;32.15;;;13.50;;
37983;SDS011;64625;50.882;4.376;2023-02-22T08:00:26;29.20;;;13.13;;
37983;SDS011;64625;50.882;4.376;2023-02-22T08:03:01;29.38;;;14.77;;
37983;SDS011;64625;50.882;4.376;2023-02-22T08:05:29;32.35;;;14.73;;
37983;SDS011;64625;50.882;4.376;2023-02-22T08:07:56;41.40;;;14.27;;
37983;SDS011;64625;50.882;4.376;2023-02-22T08:10:23;28.30;;;14.63;;
37983;SDS011;64625;50.882;4.376;2023-02-22T08:12:50;25.90;;;12.52;;
37983;SDS011;64625;50.882;4.376;2023-02-22T08:15:24;39.47;;;15.25;;
37983;SDS011;64625;50.882;4.376;2023-02-22T08:17:55;33.35;;;13.50;;
37983;SDS011;64625;50.882;4.376;2023-02-22T08:20:22;32.47;;;14.40;;
37983;SDS011;64625;50.882;4.376;2023-02-22T08:22:49;27.17;;;13.48;;
37983;SDS011;64625;50.882;4.376;2023-02-22T08:25:16;38.83;;;13.65;;
37983;SDS011;64625;50.882;4.376;2023-02-22T08:27:43;29.58;;;14.00;;
37983;SDS011;64625;50.882;4.376;2023-02-22T08:30:13;37.00;;;14.57;;
37983;SDS011;64625;50.882;4.376;2023-02-22T08:32:44;28.02;;;12.95;;
37983;SDS011;64625;50.882;4.376;2023-02-22T08:35:11;33.28;;;13.23;;
37983;SDS011;64625;50.882;4.376;2023-02-22T08:37:45;32.10;;;13.27;;
37983;SDS011;64625;50.882;4.376;2023-02-22T08:40:19;38.40;;;13.82;;
37983;SDS011;64625;50.882;4.376;2023-02-22T08:42:46;28.48;;;13.55;;
37983;SDS011;64625;50.882;4.376;2023-02-22T08:45:12;53.03;;;15.00;;
37983;SDS011;64625;50.882;4.376;2023-02-22T08:47:39;27.45;;;15.35;;
37983;SDS011;64625;50.882;4.376;2023-02-22T08:50:05;54.20;;;16.00;;
37983;SDS011;64625;50.882;4.376;2023-02-22T08:52:32;26.63;;;15.65;;
37983;SDS011;64625;50.882;4.376;2023-02-22T08:54:59;40.55;;;15.75;;
37983;SDS011;64625;50.882;4.376;2023-02-22T08:57:25;42.60;;;16.17;;
37983;SDS011;64625;50.882;4.376;2023-02-22T08:59:52;53.38;;;17.65;;
37983;SDS011;64625;50.882;4.376;2023-02-22T09:02:19;42.92;;;17.13;;
37983;SDS011;64625;50.882;4.376;2023-02-22T09:04:46;29.08;;;15.13;;
37983;SDS011;64625;50.882;4.376;2023-02-22T09:07:13;29.05;;;15.35;;
37983;SDS011;64625;50.882;4.376;2023-02-22T09:09:41;34.15;;;14.85;;
37983;SDS011;64625;50.882;4.376;2023-02-22T09:12:08;28.40;;;15.93;;
37983;SDS011;64625;50.882;4.376;2023-02-22T09:14:34;38.70;;;16.40;;
37983;SDS011;64625;50.882;4.376;2023-02-22T09:17:00;33.25;;;15.13;;
37983;SDS011;64625;50.882;4.376;2023-02-22T09:19:26;29.83;;;16.38;;
37983;SDS011;64625;50.882;4.376;2023-02-22T09:21:53;37.30;;;15.70;;
37983;SDS011;64625;50.882;4.376;2023-02-22T09:24:19;37.03;;;15.73;;
37983;SDS011;64625;50.882;4.376;2023-02-22T09:26:45;33.22;;;15.35;;
37983;SDS011;64625;50.882;4.376;2023-02-22T09:29:12;36.83;;;15.70;;
37983;SDS011;64625;50.882;4.376;2023-02-22T09:31:38;36.15;;;17.10;;
37983;SDS011;64625;50.882;4.376;2023-02-22T09:34:06;29.95;;;15.85;;
37983;SDS011;64625;50.882;4.376;2023-02-22T09:36:42;30.00;;;15.38;;
37983;SDS011;64625;50.882;4.376;2023-02-22T09:39:10;38.92;;;19.20;;
37983;SDS011;64625;50.882;4.376;2023-02-22T09:47:12;36.92;;;15.70;;
37983;SDS011;64625;50.882;4.376;2023-02-22T09:49:43;44.75;;;19.73;;
37983;SDS011;64625;50.882;4.376;2023-02-22T09:52:59;40.92;;;18.20;;
37983;SDS011;64625;50.882;4.376;2023-02-22T09:55:46;40.80;;;18.45;;
37983;SDS011;64625;50.882;4.376;2023-02-22T09:58:20;45.92;;;19.65;;
37983;SDS011;64625;50.882;4.376;2023-02-22T10:00:56;37.17;;;18.13;;
37983;SDS011;64625;50.882;4.376;2023-02-22T10:06:20;38.67;;;17.50;;
37983;SDS011;64625;50.882;4.376;2023-02-22T10:08:50;46.65;;;18.00;;
37983;SDS011;64625;50.882;4.376;2023-02-22T10:23:08;49.38;;;19.67;;
37983;SDS011;64625;50.882;4.376;2023-02-22T10:26:07;51.67;;;18.73;;
37983;SDS011;64625;50.882;4.376;2023-02-22T10:28:42;43.15;;;20.05;;
37983;SDS011;64625;50.882;4.376;2023-02-22T10:31:16;40.50;;;16.90;;
37983;SDS011;64625;50.882;4.376;2023-02-22T10:33:47;42.63;;;17.35;;
37983;SDS011;64625;50.882;4.376;2023-02-22T10:36:24;38.88;;;17.58;;
37983;SDS011;64625;50.882;4.376;2023-02-22T10:38:57;31.17;;;17.33;;
37983;SDS011;64625;50.882;4.376;2023-02-22T10:41:30;46.30;;;17.73;;
37983;SDS011;64625;50.882;4.376;2023-02-22T10:43:58;45.42;;;16.80;;
37983;SDS011;64625;50.882;4.376;2023-02-22T10:46:27;47.58;;;16.67;;
37983;SDS011;64625;50.882;4.376;2023-02-22T10:48:56;43.10;;;17.35;;
37983;SDS011;64625;50.882;4.376;2023-02-22T10:51:27;34.28;;;17.67;;
37983;SDS011;64625;50.882;4.376;2023-02-22T10:53:57;35.88;;;18.13;;
37983;SDS011;64625;50.882;4.376;2023-02-22T10:56:33;43.90;;;19.83;;
37983;SDS011;64625;50.882;4.376;2023-02-22T10:59:00;46.05;;;17.35;;
37983;SDS011;64625;50.882;4.376;2023-02-22T11:03:58;37.92;;;20.17;;
37983;SDS011;64625;50.882;4.376;2023-02-22T11:06:26;46.83;;;21.13;;
37983;SDS011;64625;50.882;4.376;2023-02-22T11:09:02;33.17;;;18.50;;
37983;SDS011;64625;50.882;4.376;2023-02-22T11:11:34;42.53;;;20.15;;
37983;SDS011;64625;50.882;4.376;2023-02-22T11:14:01;43.58;;;20.27;;
37983;SDS011;64625;50.882;4.376;2023-02-22T11:16:38;29.45;;;18.25;;
37983;SDS011;64625;50.882;4.376;2023-02-22T11:19:25;32.22;;;19.15;;
37983;SDS011;64625;50.882;4.376;2023-02-22T11:22:07;36.05;;;17.73;;
37983;SDS011;64625;50.882;4.376;2023-02-22T11:24:56;40.78;;;19.52;;
37983;SDS011;64625;50.882;4.376;2023-02-22T11:29:52;38.75;;;20.08;;
37983;SDS011;64625;50.882;4.376;2023-02-22T11:32:22;43.25;;;21.27;;
37983;SDS011;64625;50.882;4.376;2023-02-22T11:34:48;40.65;;;19.65;;
37983;SDS011;64625;50.882;4.376;2023-02-22T11:42:44;41.22;;;22.02;;
37983;SDS011;64625;50.882;4.376;2023-02-22T11:50:23;56.67;;;25.65;;
37983;SDS011;64625;50.882;4.376;2023-02-22T11:52:59;48.00;;;24.88;;
37983;SDS011;64625;50.882;4.376;2023-02-22T11:55:54;40.63;;;23.20;;
37983;SDS011;64625;50.882;4.376;2023-02-22T11:59:06;47.45;;;25.52;;
37983;SDS011;64625;50.882;4.376;2023-02-22T12:01:53;42.37;;;25.90;;
37983;SDS011;64625;50.882;4.376;2023-02-22T12:10:00;49.83;;;25.08;;
37983;SDS011;64625;50.882;4.376;2023-02-22T12:15:13;57.90;;;24.85;;
37983;SDS011;64625;50.882;4.376;2023-02-22T12:23:14;58.42;;;26.00;;
37983;SDS011;64625;50.882;4.376;2023-02-22T12:28:50;41.67;;;26.25;;
37983;SDS011;64625;50.882;4.376;2023-02-22T12:31:32;48.17;;;28.52;;
37983;SDS011;64625;50.882;4.376;2023-02-22T12:37:02;51.78;;;28.67;;
37983;SDS011;64625;50.882;4.376;2023-02-22T12:39:44;52.22;;;27.88;;
37983;SDS011;64625;50.882;4.376;2023-02-22T12:42:17;54.22;;;30.75;;
37983;SDS011;64625;50.882;4.376;2023-02-22T12:45:10;70.38;;;30.45;;
37983;SDS011;64625;50.882;4.376;2023-02-22T12:47:44;55.58;;;30.50;;
37983;SDS011;64625;50.882;4.376;2023-02-22T12:50:17;55.80;;;32.47;;
37983;SDS011;64625;50.882;4.376;2023-02-22T12:55:35;61.60;;;29.52;;
37983;SDS011;64625;50.882;4.376;2023-02-22T13:01:16;65.65;;;30.55;;
37983;SDS011;64625;50.882;4.376;2023-02-22T13:03:45;44.78;;;27.60;;
37983;SDS011;64625;50.882;4.376;2023-02-22T13:20:07;55.35;;;26.02;;
37983;SDS011;64625;50.882;4.376;2023-02-22T13:22:42;50.17;;;24.58;;
37983;SDS011;64625;50.882;4.376;2023-02-22T13:25:14;43.30;;;25.85;;
37983;SDS011;64625;50.882;4.376;2023-02-22T13:28:01;54.63;;;24.52;;
37983;SDS011;64625;50.882;4.376;2023-02-22T13:30:37;56.78;;;26.05;;
37983;SDS011;64625;50.882;4.376;2023-02-22T13:40:57;41.70;;;25.40;;
37983;SDS011;64625;50.882;4.376;2023-02-22T13:51:53;56.55;;;28.05;;
37983;SDS011;64625;50.882;4.376;2023-02-22T13:54:26;66.03;;;27.63;;
37983;SDS011;64625;50.882;4.376;2023-02-22T13:57:22;70.70;;;29.92;;
37983;SDS011;64625;50.882;4.376;2023-02-22T14:08:51;53.13;;;28.98;;
37983;SDS011;64625;50.882;4.376;2023-02-22T14:13:22;64.55;;;29.58;;
37983;SDS011;64625;50.882;4.376;2023-02-22T14:18:43;53.90;;;29.02;;
37983;SDS011;64625;50.882;4.376;2023-02-22T14:21:16;55.80;;;28.65;;
37983;SDS011;64625;50.882;4.376;2023-02-22T14:26:22;59.47;;;31.23;;
37983;SDS011;64625;50.882;4.376;2023-02-22T14:29:13;64.00;;;31.10;;
37983;SDS011;64625;50.882;4.376;2023-02-22T14:37:02;55.72;;;32.15;;
37983;SDS011;64625;50.882;4.376;2023-02-22T14:39:47;84.93;;;34.40;;
37983;SDS011;64625;50.882;4.376;2023-02-22T14:47:29;64.78;;;34.00;;
37983;SDS011;64625;50.882;4.376;2023-02-22T14:52:33;66.85;;;33.40;;
37983;SDS011;64625;50.882;4.376;2023-02-22T14:55:05;58.38;;;32.75;;
37983;SDS011;64625;50.882;4.376;2023-02-22T14:57:44;84.82;;;35.83;;
37983;SDS011;64625;50.882;4.376;2023-02-22T15:00:28;62.50;;;32.70;;
37983;SDS011;64625;50.882;4.376;2023-02-22T15:03:10;64.10;;;35.40;;
37983;SDS011;64625;50.882;4.376;2023-02-22T15:08:31;65.28;;;34.13;;
37983;SDS011;64625;50.882;4.376;2023-02-22T15:10:59;58.72;;;33.90;;
37983;SDS011;64625;50.882;4.376;2023-02-22T15:13:27;69.57;;;33.50;;
37983;SDS011;64625;50.882;4.376;2023-02-22T15:18:45;55.40;;;32.10;;
37983;SDS011;64625;50.882;4.376;2023-02-22T15:21:32;57.78;;;32.55;;
37983;SDS011;64625;50.882;4.376;2023-02-22T15:24:00;53.38;;;32.90;;
37983;SDS011;64625;50.882;4.376;2023-02-22T15:29:02;49.78;;;30.83;;
37983;SDS011;64625;50.882;4.376;2023-02-22T15:31:35;55.00;;;31.50;;
37983;SDS011;64625;50.882;4.376;2023-02-22T15:36:46;62.47;;;32.55;;
37983;SDS011;64625;50.882;4.376;2023-02-22T15:42:03;61.35;;;31.92;;
37983;SDS011;64625;50.882;4.376;2023-02-22T15:44:40;59.87;;;33.97;;
37983;SDS011;64625;50.882;4.376;2023-02-22T15:47:17;63.88;;;35.42;;
37983;SDS011;64625;50.882;4.376;2023-02-22T15:49:44;60.67;;;33.10;;
37983;SDS011;64625;50.882;4.376;2023-02-22T15:52:16;63.08;;;33.65;;
37983;SDS011;64625;50.882;4.376;2023-02-22T15:54:49;70.07;;;34.92;;
37983;SDS011;64625;50.882;4.376;2023-02-22T15:57:17;70.95;;;35.28;;
37983;SDS011;64625;50.882;4.376;2023-02-22T15:59:50;73.40;;;36.70;;
37983;SDS011;64625;50.882;4.376;2023-02-22T16:02:22;64.37;;;33.10;;
37983;SDS011;64625;50.882;4.376;2023-02-22T16:04:58;60.38;;;31.83;;
37983;SDS011;64625;50.882;4.376;2023-02-22T16:07:27;61.22;;;31.55;;
37983;SDS011;64625;50.882;4.376;2023-02-22T16:09:54;99.57;;;35.88;;
37983;SDS011;64625;50.882;4.376;2023-02-22T16:14:46;64.25;;;32.65;;
37983;SDS011;64625;50.882;4.376;2023-02-22T16:20:01;73.28;;;33.35;;
37983;SDS011;64625;50.882;4.376;2023-02-22T16:22:46;64.20;;;30.95;;
37983;SDS011;64625;50.882;4.376;2023-02-22T16:32:44;70.82;;;34.38;;
37983;SDS011;64625;50.882;4.376;2023-02-22T16:35:10;65.95;;;33.80;;
37983;SDS011;64625;50.882;4.376;2023-02-22T16:37:46;73.82;;;44.30;;
37983;SDS011;64625;50.882;4.376;2023-02-22T16:43:03;76.20;;;33.33;;
37983;SDS011;64625;50.882;4.376;2023-02-22T16:45:44;70.90;;;33.72;;
37983;SDS011;64625;50.882;4.376;2023-02-22T16:48:20;61.90;;;31.92;;
37983;SDS011;64625;50.882;4.376;2023-02-22T16:50:48;73.65;;;35.58;;
37983;SDS011;64625;50.882;4.376;2023-02-22T16:53:15;61.60;;;32.95;;
37983;SDS011;64625;50.882;4.376;2023-02-22T16:55:44;69.03;;;35.00;;
37983;SDS011;64625;50.882;4.376;2023-02-22T16:58:15;90.13;;;34.92;;
37983;SDS011;64625;50.882;4.376;2023-02-22T17:00:43;75.60;;;36.25;;
37983;SDS011;64625;50.882;4.376;2023-02-22T17:03:10;72.28;;;37.78;;
37983;SDS011;64625;50.882;4.376;2023-02-22T17:05:39;73.60;;;34.27;;
37983;SDS011;64625;50.882;4.376;2023-02-22T17:08:05;78.10;;;35.75;;
37983;SDS011;64625;50.882;4.376;2023-02-22T17:10:31;81.55;;;35.88;;
37983;SDS011;64625;50.882;4.376;2023-02-22T17:12:58;72.88;;;35.15;;
37983;SDS011;64625;50.882;4.376;2023-02-22T17:15:29;92.63;;;41.85;;
37983;SDS011;64625;50.882;4.376;2023-02-22T17:17:59;71.40;;;33.95;;
37983;SDS011;64625;50.882;4.376;2023-02-22T17:20:32;77.13;;;36.72;;
37983;SDS011;64625;50.882;4.376;2023-02-22T17:23:00;73.75;;;35.45;;
37983;SDS011;64625;50.882;4.376;2023-02-22T17:25:30;82.00;;;39.05;;
37983;SDS011;64625;50.882;4.376;2023-02-22T17:28:17;89.45;;;39.80;;
37983;SDS011;64625;50.882;4.376;2023-02-22T17:30:45;102.18;;;42.88;;
37983;SDS011;64625;50.882;4.376;2023-02-22T17:33:17;95.00;;;42.08;;
37983;SDS011;64625;50.882;4.376;2023-02-22T17:35:45;78.10;;;37.40;;
37983;SDS011;64625;50.882;4.376;2023-02-22T17:38:12;92.72;;;40.72;;
37983;SDS011;64625;50.882;4.376;2023-02-22T17:40:42;83.20;;;39.25;;
37983;SDS011;64625;50.882;4.376;2023-02-22T17:43:09;84.05;;;37.85;;
37983;SDS011;64625;50.882;4.376;2023-02-22T17:45:38;86.10;;;39.22;;
37983;SDS011;64625;50.882;4.376;2023-02-22T17:48:08;83.55;;;38.85;;
37983;SDS011;64625;50.882;4.376;2023-02-22T17:50:37;84.63;;;38.95;;
37983;SDS011;64625;50.882;4.376;2023-02-22T17:53:04;84.32;;;39.95;;
37983;SDS011;64625;50.882;4.376;2023-02-22T17:55:31;75.20;;;36.70;;